Time;durP1;ratioP1;P1;durP2;ratioP2;P2;SDS_P1;SDS_P2;PMS_P1;PMS_P2;Temp;Humidity;BMP_temperature;BMP_pressure;BME280_temperature;BME280_humidity;BME280_pressure;Samples;Min_cycle;Max_cycle;Signal;HPM_P1;HPM_P2
2023/08/03 00:01:53;;;;;;;4.68;1.10;;;17.40;99.90;;;;;;4996984;28;20214;-80
2023/08/03 00:04:20;;;;;;;1.58;0.80;;;17.30;99.90;;;;;;4997187;28;20207;-80
2023/08/03 00:07:01;;;;;;;2.58;1.13;;;17.30;99.90;;;;;;4996693;28;20231;-79
2023/08/03 00:09:28;;;;;;;2.45;0.90;;;17.30;99.90;;;;;;4996297;28;20199;-79
2023/08/03 00:11:56;;;;;;;1.75;0.85;;;17.30;99.90;;;;;;5002852;28;20233;-79
2023/08/03 00:14:26;;;;;;;1.95;0.80;;;17.20;99.90;;;;;;5016659;28;20203;-79
2023/08/03 00:16:53;;;;;;;1.27;0.63;;;17.10;99.90;;;;;;5002756;28;20223;-79
2023/08/03 00:19:21;;;;;;;2.25;0.95;;;17.10;99.90;;;;;;5028089;28;20696;-79
2023/08/03 00:21:48;;;;;;;2.58;0.93;;;17.00;99.90;;;;;;5028767;28;20203;-79
2023/08/03 00:24:15;;;;;;;2.90;1.40;;;17.00;99.90;;;;;;5004972;28;20207;-79
2023/08/03 00:26:43;;;;;;;2.25;1.00;;;17.00;99.90;;;;;;5014553;28;20220;-79
2023/08/03 00:29:10;;;;;;;1.80;1.00;;;16.90;99.90;;;;;;4993735;28;20197;-80
2023/08/03 00:31:39;;;;;;;2.03;1.00;;;16.90;99.90;;;;;;4991318;28;20223;-79
2023/08/03 00:34:06;;;;;;;2.50;1.00;;;16.90;99.90;;;;;;5014452;28;20199;-80
2023/08/03 00:36:34;;;;;;;2.58;1.20;;;17.00;99.90;;;;;;4995987;28;20188;-79
2023/08/03 00:39:01;;;;;;;2.53;1.25;;;17.00;99.90;;;;;;4995573;28;20200;-80
2023/08/03 00:41:28;;;;;;;3.15;1.40;;;17.00;99.90;;;;;;5006824;28;20699;-79
2023/08/03 00:43:57;;;;;;;2.67;1.10;;;17.00;99.90;;;;;;5014396;28;20202;-79
2023/08/03 00:46:24;;;;;;;2.58;1.27;;;17.00;99.90;;;;;;5010449;28;20658;-79
2023/08/03 00:52:45;;;;;;;2.42;1.10;;;16.90;99.90;;;;;;5024101;28;20579;-79
2023/08/03 00:55:12;;;;;;;1.95;1.30;;;16.90;99.90;;;;;;4997746;28;20199;-79
2023/08/03 00:57:40;;;;;;;3.10;1.35;;;16.80;99.90;;;;;;5010578;28;20223;-79
2023/08/03 01:00:08;;;;;;;3.35;1.60;;;16.90;99.90;;;;;;5000286;28;20214;-81
2023/08/03 01:02:36;;;;;;;3.22;1.40;;;16.80;99.90;;;;;;4993980;28;20192;-79
2023/08/03 01:05:03;;;;;;;2.85;1.10;;;16.80;99.90;;;;;;5005616;28;20202;-80
2023/08/03 01:07:31;;;;;;;3.17;1.45;;;16.90;99.90;;;;;;4986690;28;20224;-79
2023/08/03 01:10:00;;;;;;;2.72;2.08;;;16.90;99.90;;;;;;5010440;28;20207;-80
2023/08/03 01:12:28;;;;;;;3.97;1.30;;;16.80;99.90;;;;;;5006578;28;20210;-79
2023/08/03 01:14:55;;;;;;;3.85;1.30;;;16.80;99.90;;;;;;5023991;28;20543;-79
2023/08/03 01:17:24;;;;;;;2.83;1.15;;;16.80;99.90;;;;;;4991027;28;20227;-79
2023/08/03 01:19:52;;;;;;;2.53;1.30;;;16.80;99.90;;;;;;5011159;28;20210;-79
2023/08/03 01:22:20;;;;;;;2.38;1.20;;;16.80;99.90;;;;;;4995572;28;20673;-79
2023/08/03 01:24:49;;;;;;;2.13;0.90;;;16.80;99.90;;;;;;5003719;28;20203;-79
2023/08/03 01:27:16;;;;;;;1.55;0.90;;;16.80;99.90;;;;;;4994999;28;20230;-79
2023/08/03 01:29:43;;;;;;;1.20;1.00;;;16.90;99.90;;;;;;4994561;28;20688;-79
2023/08/03 01:32:18;;;;;;;1.35;0.88;;;16.80;99.90;;;;;;4994720;28;20204;-79
2023/08/03 01:34:45;;;;;;;1.67;0.88;;;16.80;99.90;;;;;;5009867;28;20198;-79
2023/08/03 01:37:13;;;;;;;1.83;1.23;;;16.80;99.90;;;;;;5002176;28;20226;-79
2023/08/03 01:39:44;;;;;;;3.15;1.25;;;16.80;99.90;;;;;;5009691;28;20202;-80
2023/08/03 01:42:13;;;;;;;1.65;0.90;;;16.70;99.90;;;;;;5003959;28;20191;-80
2023/08/03 01:44:48;;;;;;;1.30;1.20;;;16.70;99.90;;;;;;5012036;28;20207;-79
2023/08/03 01:47:15;;;;;;;3.33;1.33;;;16.70;99.90;;;;;;4994271;28;20226;-79
2023/08/03 01:49:43;;;;;;;3.35;1.23;;;16.70;99.90;;;;;;4987332;28;20196;-79
2023/08/03 01:52:10;;;;;;;2.58;1.10;;;16.70;99.90;;;;;;5008803;28;20226;-79
2023/08/03 01:54:38;;;;;;;2.80;1.33;;;16.70;99.90;;;;;;5006895;28;20200;-82
2023/08/03 01:57:05;;;;;;;2.35;1.25;;;16.70;99.90;;;;;;4994785;28;20234;-80
2023/08/03 01:59:34;;;;;;;3.05;1.40;;;16.70;99.90;;;;;;5000739;28;20196;-79
2023/08/03 02:02:02;;;;;;;2.05;1.40;;;16.80;99.90;;;;;;4993996;28;20207;-79
2023/08/03 02:04:29;;;;;;;1.40;1.30;;;16.80;99.90;;;;;;4994498;28;20210;-79
2023/08/03 02:07:02;;;;;;;3.63;1.48;;;16.70;99.90;;;;;;4994041;28;20220;-80
2023/08/03 02:09:29;;;;;;;2.03;1.50;;;16.70;99.90;;;;;;5003645;28;20225;-79
2023/08/03 02:12:09;;;;;;;3.22;1.58;;;16.70;99.90;;;;;;4995188;28;20227;-79
2023/08/03 02:14:37;;;;;;;2.58;1.60;;;16.80;99.90;;;;;;5026650;28;20199;-79
2023/08/03 02:17:05;;;;;;;3.10;1.60;;;16.80;99.90;;;;;;4992552;28;20224;-79
2023/08/03 02:19:35;;;;;;;1.88;1.67;;;16.80;99.90;;;;;;5005598;28;20207;-79
2023/08/03 02:22:02;;;;;;;2.30;1.88;;;16.80;99.90;;;;;;4994740;28;20199;-79
2023/08/03 02:24:29;;;;;;;2.35;1.60;;;16.80;99.90;;;;;;4992413;28;20204;-80
2023/08/03 02:26:57;;;;;;;7.20;2.00;;;16.80;99.90;;;;;;5001922;28;20227;-80
2023/08/03 02:29:24;;;;;;;4.90;1.80;;;16.80;99.90;;;;;;4988613;28;20203;-80
2023/08/03 02:31:53;;;;;;;5.80;1.73;;;16.80;99.90;;;;;;5009860;28;20224;-80
2023/08/03 02:34:21;;;;;;;3.95;1.90;;;16.90;99.90;;;;;;5028052;28;20203;-80
2023/08/03 02:36:53;;;;;;;4.68;1.70;;;16.90;99.90;;;;;;4997369;28;20606;-79
2023/08/03 02:39:21;;;;;;;4.32;2.05;;;16.80;99.90;;;;;;5005430;28;20571;-80
2023/08/03 02:41:49;;;;;;;4.97;1.88;;;16.90;99.90;;;;;;5003891;28;20196;-79
2023/08/03 02:44:23;;;;;;;3.15;1.35;;;16.90;99.90;;;;;;5016399;28;20207;-80
2023/08/03 02:46:50;;;;;;;4.30;1.90;;;16.90;99.90;;;;;;4998378;28;20220;-81
2023/08/03 02:49:19;;;;;;;3.67;1.52;;;16.90;99.90;;;;;;4995721;28;20593;-81
2023/08/03 02:51:49;;;;;;;4.15;1.60;;;16.90;99.90;;;;;;4996317;28;20188;-79
2023/08/03 02:54:21;;;;;;;3.80;1.60;;;16.90;99.90;;;;;;4997971;28;20213;-80
2023/08/03 02:56:54;;;;;;;4.15;2.17;;;16.90;99.90;;;;;;4997013;28;20231;-79
2023/08/03 02:59:21;;;;;;;5.30;2.05;;;16.90;99.90;;;;;;4990687;28;20326;-79
2023/08/03 03:01:49;;;;;;;5.45;2.38;;;16.90;99.90;;;;;;4997388;28;20208;-80
2023/08/03 03:04:21;;;;;;;5.75;2.15;;;16.90;99.90;;;;;;4997465;28;20191;-79
2023/08/03 03:06:49;;;;;;;5.20;2.40;;;16.90;99.90;;;;;;4996815;28;20215;-82
2023/08/03 03:09:17;;;;;;;3.97;2.10;;;16.80;99.90;;;;;;5003215;28;20278;-80
2023/08/03 03:11:51;;;;;;;5.80;2.85;;;16.80;99.90;;;;;;5005643;28;20249;-80
2023/08/03 03:14:19;;;;;;;5.53;2.17;;;16.70;99.90;;;;;;4998535;28;20226;-80
2023/08/03 03:16:46;;;;;;;5.90;2.53;;;16.70;99.90;;;;;;4996583;28;20566;-79
2023/08/03 03:19:16;;;;;;;6.30;1.83;;;16.70;99.90;;;;;;4995060;28;20211;-83
2023/08/03 03:21:45;;;;;;;4.68;2.53;;;16.70;99.90;;;;;;5028228;28;20200;-80
2023/08/03 03:24:13;;;;;;;2.80;1.90;;;16.70;99.90;;;;;;4998531;28;20200;-80
2023/08/03 03:26:40;;;;;;;6.30;2.65;;;16.70;99.90;;;;;;5024402;28;20239;-80
2023/08/03 03:29:08;;;;;;;5.90;2.58;;;16.70;99.90;;;;;;4997469;28;20220;-80
2023/08/03 03:31:36;;;;;;;4.80;2.10;;;16.70;99.90;;;;;;4997444;28;20203;-79
2023/08/03 03:34:05;;;;;;;4.50;2.05;;;16.80;99.90;;;;;;5005101;28;20579;-79
2023/08/03 03:36:33;;;;;;;4.05;1.90;;;16.80;99.90;;;;;;4990131;28;20196;-80
2023/08/03 03:39:02;;;;;;;4.47;1.95;;;16.80;99.90;;;;;;4997176;28;20199;-80
2023/08/03 03:41:29;;;;;;;2.45;1.70;;;16.80;99.90;;;;;;5038114;28;20199;-83
2023/08/03 03:43:57;;;;;;;4.53;2.13;;;16.90;99.90;;;;;;5010133;28;20203;-79
2023/08/03 03:46:24;;;;;;;2.78;1.70;;;16.90;99.90;;;;;;4996551;28;20203;-79
2023/08/03 03:48:52;;;;;;;5.00;1.77;;;16.90;99.90;;;;;;4997642;28;20191;-79
2023/08/03 03:51:21;;;;;;;4.43;1.48;;;16.90;99.90;;;;;;4989749;28;20203;-80
2023/08/03 03:53:53;;;;;;;2.72;1.52;;;16.90;99.90;;;;;;4997601;28;20212;-79
2023/08/03 03:56:22;;;;;;;5.30;2.10;;;16.90;99.90;;;;;;4993108;28;20204;-79
2023/08/03 03:58:50;;;;;;;3.88;1.80;;;16.90;99.90;;;;;;5003344;28;20202;-81
2023/08/03 04:01:18;;;;;;;5.85;1.90;;;16.90;99.90;;;;;;4997936;28;20210;-79
2023/08/03 04:03:46;;;;;;;2.42;1.73;;;16.90;99.90;;;;;;4999340;28;20200;-80
2023/08/03 04:06:13;;;;;;;4.38;1.85;;;16.90;99.90;;;;;;4993459;28;20681;-79
2023/08/03 04:08:41;;;;;;;2.83;1.50;;;16.90;99.90;;;;;;5000067;28;20227;-80
2023/08/03 04:11:08;;;;;;;4.47;1.52;;;16.90;99.90;;;;;;5016219;28;20210;-79
2023/08/03 04:13:37;;;;;;;2.88;1.42;;;16.90;99.90;;;;;;5016456;28;20219;-80
2023/08/03 04:16:04;;;;;;;2.15;1.50;;;16.90;99.90;;;;;;4999104;28;20204;-79
2023/08/03 04:18:35;;;;;;;5.38;1.73;;;16.90;99.90;;;;;;5002652;28;20207;-79
2023/08/03 04:21:03;;;;;;;2.97;1.00;;;16.90;99.90;;;;;;4998285;28;20196;-80
2023/08/03 04:23:30;;;;;;;5.75;1.55;;;16.90;99.90;;;;;;4995812;28;20204;-79
2023/08/03 04:25:59;;;;;;;2.28;1.20;;;17.00;99.90;;;;;;5016590;28;20204;-79
2023/08/03 04:28:27;;;;;;;4.07;1.63;;;17.00;99.90;;;;;;5001879;28;20585;-79
2023/08/03 04:30:56;;;;;;;4.97;1.52;;;17.00;99.90;;;;;;5016775;28;20681;-79
2023/08/03 04:33:23;;;;;;;2.47;1.50;;;17.00;99.90;;;;;;5042133;28;20215;-79
2023/08/03 04:35:55;;;;;;;2.95;1.60;;;17.00;99.90;;;;;;4992703;28;20428;-80
2023/08/03 04:38:27;;;;;;;4.15;1.73;;;17.00;99.90;;;;;;5008385;28;20234;-80
2023/08/03 04:41:00;;;;;;;2.40;1.48;;;17.00;99.90;;;;;;4997794;28;20203;-80
2023/08/03 04:43:28;;;;;;;2.97;1.40;;;17.00;99.90;;;;;;4996378;28;20210;-79
2023/08/03 04:45:57;;;;;;;2.83;1.60;;;17.10;99.90;;;;;;4995636;28;20203;-80
2023/08/03 04:48:24;;;;;;;2.08;1.25;;;17.10;99.90;;;;;;4995530;28;20214;-79
2023/08/03 04:50:53;;;;;;;2.30;1.20;;;17.10;99.90;;;;;;5011912;28;20316;-80
2023/08/03 04:53:22;;;;;;;2.40;1.33;;;17.10;99.90;;;;;;4996080;28;20215;-79
2023/08/03 04:55:50;;;;;;;2.70;1.48;;;17.10;99.90;;;;;;5027481;28;20192;-79
2023/08/03 04:58:17;;;;;;;2.00;1.23;;;17.10;99.90;;;;;;4998440;28;20223;-80
2023/08/03 05:00:48;;;;;;;2.22;1.00;;;17.10;99.90;;;;;;4995858;28;20199;-80
2023/08/03 05:03:17;;;;;;;1.90;1.17;;;17.20;99.90;;;;;;4991764;28;20208;-79
2023/08/03 05:05:45;;;;;;;2.75;1.30;;;17.20;99.90;;;;;;4991347;28;20562;-79
2023/08/03 05:08:16;;;;;;;4.00;1.85;;;17.20;99.90;;;;;;4996467;28;20231;-80
2023/08/03 05:11:00;;;;;;;3.33;1.50;;;17.10;99.90;;;;;;4995698;28;20191;-80
2023/08/03 05:13:37;;;;;;;4.88;1.35;;;17.00;99.90;;;;;;5023469;28;20222;-81
2023/08/03 05:16:05;;;;;;;3.63;1.45;;;16.90;99.90;;;;;;4989433;28;20681;-80
2023/08/03 05:18:36;;;;;;;4.38;1.50;;;16.90;99.90;;;;;;4999948;28;20219;-83
2023/08/03 05:21:03;;;;;;;2.67;1.70;;;16.90;99.90;;;;;;5026822;28;20207;-80
2023/08/03 05:23:37;;;;;;;1.60;1.50;;;16.90;99.90;;;;;;4997282;28;20676;-79
2023/08/03 05:26:04;;;;;;;1.95;1.17;;;16.90;99.90;;;;;;4989749;28;20211;-83
2023/08/03 05:28:32;;;;;;;1.50;1.40;;;17.00;99.90;;;;;;5000185;28;20732;-82
2023/08/03 05:31:00;;;;;;;3.03;1.30;;;17.10;99.90;;;;;;4985174;28;20212;-81
2023/08/03 05:33:36;;;;;;;3.35;1.42;;;17.00;99.90;;;;;;5016295;28;20220;-82
2023/08/03 05:36:04;;;;;;;2.72;1.42;;;17.10;99.90;;;;;;5019360;28;20219;-82
2023/08/03 05:38:32;;;;;;;2.13;1.63;;;17.00;99.90;;;;;;5023297;28;20230;-85
2023/08/03 05:41:04;;;;;;;3.90;1.65;;;17.00;99.90;;;;;;4994430;28;20200;-82
2023/08/03 05:43:32;;;;;;;3.67;1.85;;;17.10;99.90;;;;;;5003004;28;20203;-84
2023/08/03 05:46:01;;;;;;;3.13;1.67;;;17.00;99.90;;;;;;5006439;28;20225;-83
2023/08/03 05:48:31;;;;;;;3.47;1.90;;;17.00;99.90;;;;;;5002731;28;20736;-83
2023/08/03 05:50:59;;;;;;;2.40;1.45;;;17.00;99.90;;;;;;4995192;28;20208;-82
2023/08/03 05:53:27;;;;;;;1.88;1.25;;;17.20;99.90;;;;;;5004088;28;20223;-83
2023/08/03 05:56:10;;;;;;;5.40;3.15;;;17.10;99.90;;;;;;5014492;28;20207;-83
2023/08/03 05:58:38;;;;;;;2.53;1.90;;;17.30;99.90;;;;;;4991333;28;20228;-83
2023/08/03 06:01:06;;;;;;;3.58;2.95;;;17.40;99.90;;;;;;5004562;28;20560;-83
2023/08/03 06:03:34;;;;;;;5.28;2.40;;;17.40;99.90;;;;;;5003165;28;20200;-83
2023/08/03 06:06:05;;;;;;;2.85;1.33;;;17.30;99.90;;;;;;5011260;28;20204;-82
2023/08/03 06:08:32;;;;;;;5.72;4.20;;;17.30;99.90;;;;;;4997349;28;20223;-83
2023/08/03 06:11:03;;;;;;;5.18;3.65;;;17.50;99.90;;;;;;4993504;28;20210;-82
2023/08/03 06:13:34;;;;;;;1.70;1.02;;;17.70;99.90;;;;;;5000446;28;20199;-83
2023/08/03 06:16:04;;;;;;;4.75;3.08;;;17.50;99.90;;;;;;5026850;28;20204;-83
2023/08/03 06:18:32;;;;;;;2.25;1.00;;;17.40;99.90;;;;;;5003938;28;20582;-82
2023/08/03 06:21:00;;;;;;;2.30;1.30;;;17.30;99.90;;;;;;4999431;28;20220;-82
2023/08/03 06:23:29;;;;;;;2.53;1.48;;;17.40;99.90;;;;;;5009998;28;20617;-80
2023/08/03 06:25:58;;;;;;;1.75;0.82;;;17.20;99.90;;;;;;5010885;28;20199;-81
2023/08/03 06:28:27;;;;;;;2.35;1.20;;;17.10;99.90;;;;;;4998205;28;20234;-82
2023/08/03 06:30:54;;;;;;;1.13;1.00;;;17.00;99.90;;;;;;4996140;28;20294;-83
2023/08/03 06:33:22;;;;;;;1.20;1.10;;;16.90;99.90;;;;;;5000038;28;20210;-83
2023/08/03 06:35:53;;;;;;;3.78;1.40;;;16.80;99.90;;;;;;5000466;28;20688;-82
2023/08/03 06:38:22;;;;;;;1.48;1.25;;;16.70;99.90;;;;;;4994838;28;20224;-82
2023/08/03 06:40:51;;;;;;;1.70;1.40;;;16.70;99.90;;;;;;4984638;28;20203;-81
2023/08/03 06:43:19;;;;;;;1.38;1.08;;;16.50;99.90;;;;;;5014512;28;20676;-81
2023/08/03 06:45:47;;;;;;;1.73;1.55;;;16.50;99.90;;;;;;4992416;28;20207;-82
2023/08/03 06:48:22;;;;;;;3.60;1.67;;;16.50;99.90;;;;;;5023027;28;20228;-82
2023/08/03 06:50:50;;;;;;;1.77;1.20;;;16.40;99.90;;;;;;5011025;28;20202;-82
2023/08/03 06:53:17;;;;;;;1.40;1.27;;;16.50;99.90;;;;;;5001681;28;20203;-82
2023/08/03 06:55:48;;;;;;;1.55;1.27;;;16.50;99.90;;;;;;4994719;28;20216;-82
2023/08/03 06:58:17;;;;;;;2.75;1.52;;;16.50;99.90;;;;;;4983359;28;20243;-82
2023/08/03 07:00:45;;;;;;;2.92;1.50;;;16.50;99.90;;;;;;4989146;28;20218;-81
2023/08/03 07:03:13;;;;;;;2.40;1.58;;;16.40;99.90;;;;;;5006552;28;20230;-82
2023/08/03 07:05:41;;;;;;;1.95;1.38;;;16.40;99.90;;;;;;5018973;28;20676;-82
2023/08/03 07:08:08;;;;;;;2.17;1.42;;;16.50;99.90;;;;;;4989871;28;20231;-82
2023/08/03 07:10:36;;;;;;;2.45;1.30;;;16.50;99.90;;;;;;4992660;28;20199;-82
2023/08/03 07:13:04;;;;;;;2.55;1.67;;;16.50;99.90;;;;;;5006545;28;20203;-82
2023/08/03 07:15:46;;;;;;;2.72;1.42;;;16.50;99.90;;;;;;5011046;28;20230;-81
2023/08/03 07:18:14;;;;;;;4.13;1.83;;;16.40;99.90;;;;;;5003162;28;20226;-82
2023/08/03 07:20:42;;;;;;;2.53;2.17;;;16.60;99.90;;;;;;4997895;28;20212;-82
2023/08/03 07:23:09;;;;;;;3.20;2.22;;;16.60;99.90;;;;;;5000459;28;20685;-81
2023/08/03 07:25:37;;;;;;;4.80;1.80;;;16.60;99.90;;;;;;4995214;28;20196;-81
2023/08/03 07:28:04;;;;;;;4.13;1.70;;;16.50;99.90;;;;;;4999234;28;20215;-82
2023/08/03 07:30:35;;;;;;;2.53;1.90;;;16.50;99.90;;;;;;5005423;28;20204;-81
2023/08/03 07:33:04;;;;;;;1.77;1.45;;;16.50;99.90;;;;;;5026502;28;20199;-81
2023/08/03 07:35:32;;;;;;;1.40;1.30;;;16.60;99.90;;;;;;4994765;28;20211;-81
2023/08/03 07:37:59;;;;;;;1.85;1.42;;;16.60;99.90;;;;;;5008163;28;20226;-80
2023/08/03 07:40:27;;;;;;;1.65;1.40;;;16.60;99.90;;;;;;5025411;28;20202;-81
2023/08/03 07:42:54;;;;;;;3.53;1.60;;;16.60;99.90;;;;;;4998790;28;21028;-80
2023/08/03 07:45:21;;;;;;;2.75;1.52;;;16.70;99.90;;;;;;4995841;28;20211;-80
2023/08/03 07:47:49;;;;;;;3.50;1.33;;;16.70;99.90;;;;;;5009897;28;20246;-79
2023/08/03 07:50:18;;;;;;;1.65;1.20;;;16.70;99.90;;;;;;5023908;28;20204;-81
2023/08/03 07:52:45;;;;;;;4.05;1.50;;;16.60;99.90;;;;;;5006018;28;20210;-78
2023/08/03 07:55:13;;;;;;;1.88;1.52;;;16.60;99.90;;;;;;5002620;28;20568;-78
2023/08/03 07:57:40;;;;;;;2.13;1.92;;;16.60;99.90;;;;;;5010156;28;20224;-78
2023/08/03 08:00:10;;;;;;;1.70;1.60;;;16.70;99.90;;;;;;4994492;28;20196;-80
2023/08/03 08:02:40;;;;;;;2.25;1.80;;;16.60;99.90;;;;;;5015972;28;20199;-79
2023/08/03 08:05:09;;;;;;;3.65;1.70;;;16.70;99.90;;;;;;5008177;28;20289;-80
2023/08/03 08:07:37;;;;;;;4.97;2.03;;;16.70;99.90;;;;;;5011293;28;20226;-79
2023/08/03 08:10:06;;;;;;;2.67;2.22;;;16.70;99.90;;;;;;5015972;28;20194;-79
2023/08/03 08:12:33;;;;;;;2.90;2.33;;;16.80;99.90;;;;;;5013860;28;20202;-80
2023/08/03 08:15:01;;;;;;;2.65;2.30;;;16.90;99.90;;;;;;4998214;28;20232;-79
2023/08/03 08:17:28;;;;;;;2.95;2.35;;;17.00;99.90;;;;;;4994292;28;20219;-79
2023/08/03 08:19:57;;;;;;;2.85;2.50;;;17.10;99.90;;;;;;4999303;28;20203;-79
2023/08/03 08:22:24;;;;;;;3.85;2.50;;;17.10;99.90;;;;;;4996689;28;20204;-79
2023/08/03 08:24:53;;;;;;;3.45;2.83;;;17.10;99.90;;;;;;5028654;28;20192;-79
2023/08/03 08:27:21;;;;;;;3.28;2.80;;;17.10;99.90;;;;;;4997647;28;20223;-79
2023/08/03 08:29:48;;;;;;;3.05;2.75;;;17.20;99.90;;;;;;5001054;28;20199;-79
2023/08/03 08:32:16;;;;;;;3.67;2.67;;;17.30;99.90;;;;;;5006832;28;20206;-79
2023/08/03 08:34:43;;;;;;;5.30;2.65;;;17.40;99.90;;;;;;5004794;28;20215;-79
2023/08/03 08:37:10;;;;;;;2.92;2.33;;;17.40;99.90;;;;;;5017390;28;20226;-79
2023/08/03 08:39:38;;;;;;;5.28;2.53;;;17.40;99.90;;;;;;5014030;28;20214;-79
2023/08/03 08:42:15;;;;;;;2.60;2.20;;;17.40;99.90;;;;;;5037902;28;20195;-79
2023/08/03 08:44:42;;;;;;;4.32;2.67;;;17.40;99.90;;;;;;4996388;28;20218;-79
2023/08/03 08:47:09;;;;;;;3.38;1.88;;;17.40;99.90;;;;;;5028876;28;20230;-79
2023/08/03 08:49:37;;;;;;;3.58;2.47;;;17.30;99.90;;;;;;5033082;28;20198;-79
2023/08/03 08:52:16;;;;;;;3.00;2.00;;;17.30;99.90;;;;;;5000756;28;20199;-80
2023/08/03 08:54:43;;;;;;;3.05;2.20;;;17.40;99.90;;;;;;5018818;28;20202;-80
2023/08/03 08:57:12;;;;;;;3.03;2.00;;;17.50;99.90;;;;;;5023941;28;20219;-80
2023/08/03 08:59:59;;;;;;;3.63;1.98;;;17.40;99.90;;;;;;5012249;28;20199;-79
2023/08/03 09:02:27;;;;;;;5.95;2.60;;;17.50;99.90;;;;;;5010702;28;20198;-79
2023/08/03 09:04:54;;;;;;;2.55;1.77;;;17.60;99.90;;;;;;5015398;28;20207;-79
2023/08/03 09:07:22;;;;;;;2.58;2.13;;;17.50;99.90;;;;;;4996974;28;20574;-80
2023/08/03 09:10:02;;;;;;;3.13;1.90;;;17.50;99.90;;;;;;5000993;28;20222;-80
2023/08/03 09:12:31;;;;;;;2.50;2.30;;;17.60;99.90;;;;;;4992188;28;20203;-80
2023/08/03 09:14:58;;;;;;;3.70;2.28;;;17.60;99.90;;;;;;5012988;28;20199;-80
2023/08/03 09:17:27;;;;;;;2.08;1.88;;;17.70;99.90;;;;;;5000152;28;20222;-80
2023/08/03 09:19:55;;;;;;;4.10;2.08;;;17.70;99.90;;;;;;5024646;28;20195;-80
2023/08/03 09:23:00;;;;;;;3.65;2.08;;;17.80;99.90;;;;;;4989243;28;20208;-82
2023/08/03 09:25:28;;;;;;;2.30;2.10;;;17.80;99.90;;;;;;5008494;28;20554;-81
2023/08/03 09:27:57;;;;;;;3.60;1.60;;;17.90;99.90;;;;;;4993001;28;20697;-81
2023/08/03 09:30:25;;;;;;;3.75;1.85;;;17.90;99.90;;;;;;5004871;28;20671;-81
2023/08/03 09:32:53;;;;;;;2.97;2.13;;;17.90;99.90;;;;;;4994737;28;20199;-81
2023/08/03 09:35:23;;;;;;;3.65;1.95;;;17.90;99.90;;;;;;5000314;28;20220;-81
2023/08/03 09:37:51;;;;;;;2.60;1.85;;;17.80;99.90;;;;;;5010892;28;20220;-82
2023/08/03 09:40:20;;;;;;;3.40;1.50;;;17.80;99.90;;;;;;4997907;28;20199;-81
2023/08/03 09:42:48;;;;;;;2.90;1.80;;;17.80;99.90;;;;;;4998121;28;20204;-81
2023/08/03 09:45:17;;;;;;;2.72;1.67;;;17.70;99.90;;;;;;5026465;28;20221;-81
2023/08/03 09:47:45;;;;;;;4.03;1.55;;;17.80;99.90;;;;;;4992367;28;20236;-81
2023/08/03 09:50:13;;;;;;;4.68;1.90;;;17.60;99.90;;;;;;5020438;28;20220;-80
2023/08/03 09:52:45;;;;;;;3.83;2.00;;;17.60;99.90;;;;;;4997474;28;20203;-82
2023/08/03 09:55:19;;;;;;;3.65;1.88;;;17.60;99.90;;;;;;4996293;28;20585;-82
2023/08/03 09:57:55;;;;;;;3.75;1.70;;;17.70;99.90;;;;;;4997296;28;20227;-82
2023/08/03 10:00:29;;;;;;;2.10;1.92;;;17.70;99.90;;;;;;5002128;28;20203;-82
2023/08/03 10:03:00;;;;;;;5.35;2.40;;;17.70;99.90;;;;;;5009353;28;20203;-81
2023/08/03 10:05:29;;;;;;;2.47;1.92;;;17.60;99.90;;;;;;5001880;28;20214;-80
2023/08/03 10:08:05;;;;;;;3.22;2.38;;;17.50;99.90;;;;;;5004741;28;20220;-81
2023/08/03 10:10:39;;;;;;;2.75;2.20;;;17.40;99.90;;;;;;4996552;28;20206;-81
2023/08/03 10:13:07;;;;;;;4.32;2.67;;;17.40;99.90;;;;;;4994778;28;20219;-82
2023/08/03 10:15:36;;;;;;;3.83;2.22;;;17.40;99.90;;;;;;4996913;28;20221;-81
2023/08/03 10:18:06;;;;;;;3.33;2.50;;;17.40;99.90;;;;;;5006536;28;20239;-80
2023/08/03 10:20:35;;;;;;;8.93;2.70;;;17.50;99.90;;;;;;5002781;28;20210;-81
2023/08/03 10:23:10;;;;;;;3.03;2.20;;;17.50;99.90;;;;;;5001899;28;20222;-81
2023/08/03 10:25:53;;;;;;;4.50;2.22;;;17.70;99.90;;;;;;5007640;28;20207;-82
2023/08/03 10:28:25;;;;;;;3.58;2.22;;;17.70;99.90;;;;;;4996051;28;20237;-82
2023/08/03 10:31:10;;;;;;;3.75;2.67;;;17.60;99.90;;;;;;5011351;28;20209;-82
2023/08/03 10:34:03;;;;;;;3.80;2.38;;;17.60;99.90;;;;;;5010713;28;20209;-81
2023/08/03 10:36:56;;;;;;;4.00;2.40;;;17.60;99.90;;;;;;5003310;28;20225;-81
2023/08/03 10:39:59;;;;;;;3.17;2.78;;;17.50;99.90;;;;;;4991443;28;20214;-81
2023/08/03 10:42:29;;;;;;;2.92;2.63;;;17.60;99.90;;;;;;4979351;28;20203;-81
2023/08/03 10:45:27;;;;;;;4.55;2.92;;;17.60;99.90;;;;;;4993232;28;20203;-81
2023/08/03 10:48:22;;;;;;;3.58;2.88;;;17.60;99.90;;;;;;5004717;28;20238;-81
2023/08/03 10:51:01;;;;;;;5.90;3.50;;;17.60;99.90;;;;;;4986343;28;20211;-81
2023/08/03 10:53:29;;;;;;;3.20;2.83;;;17.60;99.90;;;;;;5016422;28;20210;-81
2023/08/03 10:56:05;;;;;;;3.33;3.10;;;17.60;99.90;;;;;;5005714;28;20250;-81
2023/08/03 10:58:47;;;;;;;4.85;2.70;;;17.60;99.90;;;;;;5012996;28;20234;-81
2023/08/03 11:01:16;;;;;;;3.97;2.58;;;17.60;99.90;;;;;;5015317;28;20217;-81
2023/08/03 11:03:44;;;;;;;3.38;2.50;;;17.60;99.90;;;;;;5010291;28;20203;-81
2023/08/03 11:06:12;;;;;;;3.40;3.03;;;17.60;99.90;;;;;;5013724;28;20210;-81
2023/08/03 11:08:40;;;;;;;4.82;3.15;;;17.70;99.90;;;;;;5016866;28;20234;-81
2023/08/03 11:11:12;;;;;;;3.22;2.40;;;17.70;99.90;;;;;;5027466;28;20199;-82
2023/08/03 11:13:40;;;;;;;4.82;2.80;;;17.70;99.90;;;;;;5017740;28;20198;-81
2023/08/03 11:16:08;;;;;;;4.32;3.35;;;17.70;99.90;;;;;;5029191;28;20224;-81
2023/08/03 11:18:35;;;;;;;4.28;3.38;;;17.70;99.90;;;;;;5018512;28;20224;-81
2023/08/03 11:21:08;;;;;;;5.18;3.42;;;17.70;99.90;;;;;;5011926;28;20668;-81
2023/08/03 11:23:36;;;;;;;5.10;2.67;;;17.60;99.90;;;;;;5027156;28;20215;-82
2023/08/03 11:26:06;;;;;;;4.03;2.70;;;17.70;99.90;;;;;;4999571;28;20208;-82
2023/08/03 11:28:39;;;;;;;4.85;2.80;;;17.70;99.90;;;;;;5007074;28;20230;-82
2023/08/03 11:31:15;;;;;;;3.45;2.50;;;17.70;99.90;;;;;;5030106;28;20197;-81
2023/08/03 11:33:49;;;;;;;4.40;2.75;;;17.70;99.90;;;;;;5026141;28;20203;-81
2023/08/03 11:36:17;;;;;;;3.53;2.70;;;17.80;99.90;;;;;;5023210;28;20211;-81
2023/08/03 11:38:46;;;;;;;3.45;2.70;;;17.80;99.90;;;;;;5000811;28;20219;-81
2023/08/03 11:41:14;;;;;;;3.92;2.53;;;17.90;99.90;;;;;;5039209;28;20200;-81
2023/08/03 11:43:42;;;;;;;4.22;3.20;;;18.00;99.90;;;;;;5012018;28;20202;-81
2023/08/03 11:46:09;;;;;;;2.75;2.55;;;18.10;99.90;;;;;;5016367;28;20195;-81
2023/08/03 11:48:37;;;;;;;7.88;3.08;;;18.20;99.90;;;;;;5005390;28;20226;-81
2023/08/03 11:51:04;;;;;;;4.00;3.15;;;18.30;99.90;;;;;;5000719;28;20650;-81
2023/08/03 11:53:34;;;;;;;4.38;3.28;;;18.40;99.90;;;;;;5017729;28;20176;-81
2023/08/03 11:56:02;;;;;;;3.70;3.17;;;18.40;99.90;;;;;;5005775;28;20206;-81
2023/08/03 11:58:28;;;;;;;4.13;3.20;;;18.40;99.90;;;;;;5007942;28;20242;-81
2023/08/03 12:00:59;;;;;;;4.88;3.25;;;18.50;99.90;;;;;;4998288;28;20661;-81
2023/08/03 12:03:34;;;;;;;4.43;2.95;;;18.50;99.90;;;;;;5030699;28;20191;-81
2023/08/03 12:06:04;;;;;;;3.58;2.88;;;18.50;99.90;;;;;;5019110;28;20198;-82
2023/08/03 12:08:41;;;;;;;3.00;2.72;;;18.50;99.90;;;;;;5004914;28;20223;-81
2023/08/03 12:11:08;;;;;;;4.03;2.92;;;18.40;99.90;;;;;;5018456;28;20214;-81
2023/08/03 12:13:36;;;;;;;3.90;2.40;;;18.40;99.90;;;;;;5018168;28;20195;-81
2023/08/03 12:16:04;;;;;;;4.95;2.67;;;18.40;99.90;;;;;;5009104;28;20666;-81
2023/08/03 12:18:31;;;;;;;4.72;2.60;;;18.40;99.90;;;;;;5030566;28;20234;-82
2023/08/03 12:20:59;;;;;;;6.88;3.03;;;18.40;99.90;;;;;;5031261;28;20653;-82
2023/08/03 12:23:26;;;;;;;3.95;2.60;;;18.50;99.90;;;;;;5031360;28;20196;-82
2023/08/03 12:25:55;;;;;;;5.50;2.88;;;18.60;99.90;;;;;;4998127;28;20211;-82
2023/08/03 12:28:23;;;;;;;3.85;2.67;;;18.70;99.90;;;;;;5015951;28;20216;-82
2023/08/03 12:30:50;;;;;;;2.80;2.40;;;18.80;99.90;;;;;;4998013;28;20207;-81
2023/08/03 12:33:18;;;;;;;4.50;2.78;;;18.80;99.90;;;;;;5014242;28;20206;-81
2023/08/03 12:35:45;;;;;;;5.38;3.00;;;18.90;99.90;;;;;;4998532;28;20196;-82
2023/08/03 12:38:12;;;;;;;4.72;2.75;;;18.80;99.90;;;;;;4997663;28;20605;-82
2023/08/03 12:40:40;;;;;;;5.82;2.78;;;18.90;99.90;;;;;;5013769;28;20266;-82
2023/08/03 12:43:09;;;;;;;4.47;2.60;;;18.90;99.90;;;;;;5020303;28;20218;-82
2023/08/03 12:45:37;;;;;;;4.53;2.83;;;18.90;99.90;;;;;;5019503;28;20195;-82
2023/08/03 12:48:05;;;;;;;3.30;2.10;;;18.90;99.90;;;;;;5008244;28;20717;-82
2023/08/03 12:50:32;;;;;;;3.30;2.03;;;19.00;99.90;;;;;;5038981;28;20199;-82
2023/08/03 12:53:00;;;;;;;3.15;2.00;;;19.10;99.90;;;;;;5020954;28;20207;-81
2023/08/03 12:55:27;;;;;;;2.83;1.90;;;19.20;99.90;;;;;;5020178;28;20207;-81
2023/08/03 12:57:54;;;;;;;2.80;2.35;;;19.30;99.90;;;;;;5007389;28;20220;-82
2023/08/03 13:00:27;;;;;;;1.80;1.70;;;19.50;99.90;;;;;;5004347;28;20198;-82
2023/08/03 13:02:54;;;;;;;2.53;2.10;;;19.50;99.90;;;;;;5019880;28;20202;-82
2023/08/03 13:05:22;;;;;;;1.88;1.67;;;19.30;99.90;;;;;;5019652;28;20203;-82